sensor_id;sensor_type;location;lat;lon;timestamp;P1;durP1;ratioP1;P2;durP2;ratioP2
3771;SDS011;1901;48.172;12.824;2024-03-17T00:02:04;5.53;;;2.60;;
3771;SDS011;1901;48.172;12.824;2024-03-17T00:04:29;4.93;;;2.58;;
3771;SDS011;1901;48.172;12.824;2024-03-17T00:06:55;6.57;;;2.37;;
3771;SDS011;1901;48.172;12.824;2024-03-17T00:09:20;5.05;;;2.30;;
3771;SDS011;1901;48.172;12.824;2024-03-17T00:11:45;6.65;;;3.20;;
3771;SDS011;1901;48.172;12.824;2024-03-17T00:14:10;5.43;;;2.47;;
3771;SDS011;1901;48.172;12.824;2024-03-17T00:16:36;5.28;;;3.05;;
3771;SDS011;1901;48.172;12.824;2024-03-17T00:19:01;5.03;;;2.67;;
3771;SDS011;1901;48.172;12.824;2024-03-17T00:21:26;5.03;;;2.67;;
3771;SDS011;1901;48.172;12.824;2024-03-17T00:23:52;5.22;;;2.65;;
3771;SDS011;1901;48.172;12.824;2024-03-17T00:26:17;6.40;;;2.73;;
3771;SDS011;1901;48.172;12.824;2024-03-17T00:28:44;7.63;;;3.10;;
3771;SDS011;1901;48.172;12.824;2024-03-17T00:31:11;5.90;;;2.90;;
3771;SDS011;1901;48.172;12.824;2024-03-17T00:33:36;4.68;;;2.80;;
3771;SDS011;1901;48.172;12.824;2024-03-17T00:36:02;7.85;;;2.95;;
3771;SDS011;1901;48.172;12.824;2024-03-17T00:38:27;5.87;;;2.77;;
3771;SDS011;1901;48.172;12.824;2024-03-17T00:40:52;6.27;;;2.97;;
3771;SDS011;1901;48.172;12.824;2024-03-17T00:43:18;6.82;;;2.80;;
3771;SDS011;1901;48.172;12.824;2024-03-17T00:45:43;5.00;;;2.60;;
3771;SDS011;1901;48.172;12.824;2024-03-17T00:48:08;6.80;;;2.83;;
3771;SDS011;1901;48.172;12.824;2024-03-17T00:50:34;6.70;;;2.88;;
3771;SDS011;1901;48.172;12.824;2024-03-17T00:52:59;6.23;;;2.60;;
3771;SDS011;1901;48.172;12.824;2024-03-17T00:55:26;6.95;;;2.97;;
3771;SDS011;1901;48.172;12.824;2024-03-17T00:57:51;5.70;;;2.95;;
3771;SDS011;1901;48.172;12.824;2024-03-17T01:00:17;4.90;;;2.58;;
3771;SDS011;1901;48.172;12.824;2024-03-17T01:02:42;6.43;;;3.08;;
3771;SDS011;1901;48.172;12.824;2024-03-17T01:05:08;7.30;;;3.13;;
3771;SDS011;1901;48.172;12.824;2024-03-17T01:07:33;8.43;;;3.17;;
3771;SDS011;1901;48.172;12.824;2024-03-17T01:09:59;7.25;;;3.30;;
3771;SDS011;1901;48.172;12.824;2024-03-17T01:12:25;6.40;;;3.53;;
3771;SDS011;1901;48.172;12.824;2024-03-17T01:14:50;7.03;;;3.45;;
3771;SDS011;1901;48.172;12.824;2024-03-17T01:17:15;6.85;;;3.20;;
3771;SDS011;1901;48.172;12.824;2024-03-17T01:19:40;8.20;;;2.87;;
3771;SDS011;1901;48.172;12.824;2024-03-17T01:22:06;8.40;;;2.93;;
3771;SDS011;1901;48.172;12.824;2024-03-17T01:24:31;6.60;;;3.27;;
3771;SDS011;1901;48.172;12.824;2024-03-17T01:26:59;7.83;;;3.60;;
3771;SDS011;1901;48.172;12.824;2024-03-17T01:29:24;9.18;;;4.65;;
3771;SDS011;1901;48.172;12.824;2024-03-17T01:31:50;6.85;;;3.65;;
3771;SDS011;1901;48.172;12.824;2024-03-17T01:34:15;7.72;;;3.88;;
3771;SDS011;1901;48.172;12.824;2024-03-17T01:36:40;8.73;;;3.80;;
3771;SDS011;1901;48.172;12.824;2024-03-17T01:39:06;7.50;;;3.35;;
3771;SDS011;1901;48.172;12.824;2024-03-17T01:41:32;8.55;;;3.38;;
3771;SDS011;1901;48.172;12.824;2024-03-17T01:43:57;8.68;;;3.75;;
3771;SDS011;1901;48.172;12.824;2024-03-17T01:46:23;7.45;;;4.30;;
3771;SDS011;1901;48.172;12.824;2024-03-17T01:48:49;7.22;;;3.35;;
3771;SDS011;1901;48.172;12.824;2024-03-17T01:51:14;6.28;;;3.45;;
3771;SDS011;1901;48.172;12.824;2024-03-17T01:53:40;9.23;;;4.22;;
3771;SDS011;1901;48.172;12.824;2024-03-17T01:56:07;7.40;;;4.00;;
3771;SDS011;1901;48.172;12.824;2024-03-17T01:58:33;9.63;;;4.13;;
3771;SDS011;1901;48.172;12.824;2024-03-17T02:00:59;10.70;;;4.95;;
3771;SDS011;1901;48.172;12.824;2024-03-17T02:03:24;11.07;;;5.20;;
3771;SDS011;1901;48.172;12.824;2024-03-17T02:05:49;9.98;;;5.35;;
3771;SDS011;1901;48.172;12.824;2024-03-17T02:08:15;8.50;;;4.30;;
3771;SDS011;1901;48.172;12.824;2024-03-17T02:10:41;8.90;;;4.53;;
3771;SDS011;1901;48.172;12.824;2024-03-17T02:13:06;9.70;;;3.75;;
3771;SDS011;1901;48.172;12.824;2024-03-17T02:15:31;10.23;;;4.63;;
3771;SDS011;1901;48.172;12.824;2024-03-17T02:17:57;11.40;;;5.28;;
3771;SDS011;1901;48.172;12.824;2024-03-17T02:20:22;10.30;;;4.77;;
3771;SDS011;1901;48.172;12.824;2024-03-17T02:23:10;8.57;;;4.18;;
3771;SDS011;1901;48.172;12.824;2024-03-17T02:25:35;9.68;;;4.63;;
3771;SDS011;1901;48.172;12.824;2024-03-17T02:28:01;9.70;;;4.40;;
3771;SDS011;1901;48.172;12.824;2024-03-17T02:30:26;9.82;;;4.30;;
3771;SDS011;1901;48.172;12.824;2024-03-17T02:32:52;9.57;;;4.50;;
3771;SDS011;1901;48.172;12.824;2024-03-17T02:35:17;9.88;;;4.05;;
3771;SDS011;1901;48.172;12.824;2024-03-17T02:37:42;7.72;;;4.10;;
3771;SDS011;1901;48.172;12.824;2024-03-17T02:40:07;11.13;;;4.95;;
3771;SDS011;1901;48.172;12.824;2024-03-17T02:42:35;15.43;;;5.40;;
3771;SDS011;1901;48.172;12.824;2024-03-17T02:45:00;9.17;;;4.30;;
3771;SDS011;1901;48.172;12.824;2024-03-17T02:47:25;9.60;;;4.32;;
3771;SDS011;1901;48.172;12.824;2024-03-17T02:49:51;10.77;;;4.40;;
3771;SDS011;1901;48.172;12.824;2024-03-17T02:52:17;10.93;;;4.35;;
3771;SDS011;1901;48.172;12.824;2024-03-17T02:54:42;10.18;;;5.63;;
3771;SDS011;1901;48.172;12.824;2024-03-17T02:57:07;11.83;;;4.43;;
3771;SDS011;1901;48.172;12.824;2024-03-17T02:59:32;11.17;;;5.43;;
3771;SDS011;1901;48.172;12.824;2024-03-17T03:01:58;9.10;;;4.40;;
3771;SDS011;1901;48.172;12.824;2024-03-17T03:04:24;11.88;;;4.75;;
3771;SDS011;1901;48.172;12.824;2024-03-17T03:06:49;9.88;;;4.70;;
3771;SDS011;1901;48.172;12.824;2024-03-17T03:09:15;9.53;;;4.27;;
3771;SDS011;1901;48.172;12.824;2024-03-17T03:11:45;10.68;;;4.22;;
3771;SDS011;1901;48.172;12.824;2024-03-17T03:14:11;14.48;;;5.50;;
3771;SDS011;1901;48.172;12.824;2024-03-17T03:16:37;8.25;;;5.15;;
3771;SDS011;1901;48.172;12.824;2024-03-17T03:19:02;11.80;;;4.43;;
3771;SDS011;1901;48.172;12.824;2024-03-17T03:21:27;9.87;;;4.57;;
3771;SDS011;1901;48.172;12.824;2024-03-17T03:23:52;11.00;;;5.33;;
3771;SDS011;1901;48.172;12.824;2024-03-17T03:26:17;11.35;;;4.88;;
3771;SDS011;1901;48.172;12.824;2024-03-17T03:28:43;10.23;;;4.73;;
3771;SDS011;1901;48.172;12.824;2024-03-17T03:31:11;11.77;;;4.88;;
3771;SDS011;1901;48.172;12.824;2024-03-17T03:33:40;16.45;;;6.25;;
3771;SDS011;1901;48.172;12.824;2024-03-17T03:36:09;14.05;;;5.75;;
3771;SDS011;1901;48.172;12.824;2024-03-17T03:38:35;11.77;;;5.60;;
3771;SDS011;1901;48.172;12.824;2024-03-17T03:41:05;11.93;;;5.63;;
3771;SDS011;1901;48.172;12.824;2024-03-17T03:43:30;11.95;;;5.10;;
3771;SDS011;1901;48.172;12.824;2024-03-17T03:45:56;15.23;;;5.38;;
3771;SDS011;1901;48.172;12.824;2024-03-17T03:48:21;12.85;;;6.07;;
3771;SDS011;1901;48.172;12.824;2024-03-17T03:50:46;13.48;;;6.30;;
3771;SDS011;1901;48.172;12.824;2024-03-17T03:53:12;14.90;;;6.80;;
3771;SDS011;1901;48.172;12.824;2024-03-17T03:55:37;16.45;;;6.97;;
3771;SDS011;1901;48.172;12.824;2024-03-17T03:58:03;16.02;;;7.63;;
3771;SDS011;1901;48.172;12.824;2024-03-17T04:00:28;16.67;;;7.20;;
3771;SDS011;1901;48.172;12.824;2024-03-17T04:02:58;15.05;;;6.45;;
3771;SDS011;1901;48.172;12.824;2024-03-17T04:05:23;13.70;;;5.85;;
3771;SDS011;1901;48.172;12.824;2024-03-17T04:07:49;11.90;;;4.78;;
3771;SDS011;1901;48.172;12.824;2024-03-17T04:10:14;11.00;;;5.23;;
3771;SDS011;1901;48.172;12.824;2024-03-17T04:12:40;10.82;;;5.10;;
3771;SDS011;1901;48.172;12.824;2024-03-17T04:15:05;13.32;;;4.90;;
3771;SDS011;1901;48.172;12.824;2024-03-17T04:17:35;11.90;;;5.68;;
3771;SDS011;1901;48.172;12.824;2024-03-17T04:20:00;13.03;;;5.40;;
3771;SDS011;1901;48.172;12.824;2024-03-17T04:22:25;13.40;;;6.30;;
3771;SDS011;1901;48.172;12.824;2024-03-17T04:24:51;14.10;;;6.17;;
3771;SDS011;1901;48.172;12.824;2024-03-17T04:27:26;13.35;;;6.20;;
3771;SDS011;1901;48.172;12.824;2024-03-17T04:29:55;13.23;;;5.72;;
3771;SDS011;1901;48.172;12.824;2024-03-17T04:32:21;13.98;;;5.72;;
3771;SDS011;1901;48.172;12.824;2024-03-17T04:34:46;12.05;;;5.70;;
3771;SDS011;1901;48.172;12.824;2024-03-17T04:37:14;9.93;;;4.95;;
3771;SDS011;1901;48.172;12.824;2024-03-17T04:39:40;10.15;;;5.07;;
3771;SDS011;1901;48.172;12.824;2024-03-17T04:42:07;11.82;;;5.05;;
3771;SDS011;1901;48.172;12.824;2024-03-17T04:44:33;12.60;;;5.63;;
3771;SDS011;1901;48.172;12.824;2024-03-17T04:46:58;12.60;;;5.20;;
3771;SDS011;1901;48.172;12.824;2024-03-17T04:49:23;10.60;;;5.60;;
3771;SDS011;1901;48.172;12.824;2024-03-17T04:51:48;9.97;;;4.87;;
3771;SDS011;1901;48.172;12.824;2024-03-17T04:54:13;10.80;;;4.90;;
3771;SDS011;1901;48.172;12.824;2024-03-17T04:56:39;13.88;;;5.63;;
3771;SDS011;1901;48.172;12.824;2024-03-17T04:59:04;9.52;;;4.93;;
3771;SDS011;1901;48.172;12.824;2024-03-17T05:01:30;12.05;;;6.28;;
3771;SDS011;1901;48.172;12.824;2024-03-17T05:04:00;9.77;;;5.30;;
3771;SDS011;1901;48.172;12.824;2024-03-17T05:06:26;10.43;;;5.22;;
3771;SDS011;1901;48.172;12.824;2024-03-17T05:08:51;13.80;;;5.65;;
3771;SDS011;1901;48.172;12.824;2024-03-17T05:11:16;11.90;;;5.13;;
3771;SDS011;1901;48.172;12.824;2024-03-17T05:13:43;15.02;;;6.43;;
3771;SDS011;1901;48.172;12.824;2024-03-17T05:16:08;14.13;;;5.95;;
3771;SDS011;1901;48.172;12.824;2024-03-17T05:18:33;13.93;;;7.47;;
3771;SDS011;1901;48.172;12.824;2024-03-17T05:21:02;11.10;;;5.73;;
3771;SDS011;1901;48.172;12.824;2024-03-17T05:23:28;13.63;;;5.72;;
3771;SDS011;1901;48.172;12.824;2024-03-17T05:25:54;11.50;;;5.82;;
3771;SDS011;1901;48.172;12.824;2024-03-17T05:28:20;12.45;;;4.65;;
3771;SDS011;1901;48.172;12.824;2024-03-17T05:30:45;10.77;;;4.53;;
3771;SDS011;1901;48.172;12.824;2024-03-17T05:33:10;9.97;;;4.50;;
3771;SDS011;1901;48.172;12.824;2024-03-17T05:35:35;11.30;;;5.00;;
3771;SDS011;1901;48.172;12.824;2024-03-17T05:38:00;9.63;;;4.38;;
3771;SDS011;1901;48.172;12.824;2024-03-17T05:40:26;11.23;;;5.05;;
3771;SDS011;1901;48.172;12.824;2024-03-17T05:42:51;14.82;;;5.60;;
3771;SDS011;1901;48.172;12.824;2024-03-17T05:45:16;12.48;;;5.97;;
3771;SDS011;1901;48.172;12.824;2024-03-17T05:47:42;11.87;;;5.87;;
3771;SDS011;1901;48.172;12.824;2024-03-17T05:50:07;11.80;;;5.77;;
3771;SDS011;1901;48.172;12.824;2024-03-17T05:52:32;11.95;;;5.05;;
3771;SDS011;1901;48.172;12.824;2024-03-17T05:54:57;11.13;;;5.03;;
3771;SDS011;1901;48.172;12.824;2024-03-17T05:57:22;10.80;;;4.73;;
3771;SDS011;1901;48.172;12.824;2024-03-17T05:59:49;10.23;;;5.47;;
3771;SDS011;1901;48.172;12.824;2024-03-17T06:02:14;11.90;;;5.20;;
3771;SDS011;1901;48.172;12.824;2024-03-17T06:04:40;8.45;;;4.28;;
3771;SDS011;1901;48.172;12.824;2024-03-17T06:07:06;10.05;;;4.70;;
3771;SDS011;1901;48.172;12.824;2024-03-17T06:09:31;9.87;;;4.40;;
3771;SDS011;1901;48.172;12.824;2024-03-17T06:11:56;9.43;;;4.90;;
3771;SDS011;1901;48.172;12.824;2024-03-17T06:14:21;8.32;;;4.07;;
3771;SDS011;1901;48.172;12.824;2024-03-17T06:16:47;11.33;;;4.70;;
3771;SDS011;1901;48.172;12.824;2024-03-17T06:19:12;10.32;;;4.82;;
3771;SDS011;1901;48.172;12.824;2024-03-17T06:21:37;11.30;;;5.17;;
3771;SDS011;1901;48.172;12.824;2024-03-17T06:24:03;9.18;;;4.53;;
3771;SDS011;1901;48.172;12.824;2024-03-17T06:26:29;8.65;;;4.38;;
3771;SDS011;1901;48.172;12.824;2024-03-17T06:28:56;10.85;;;5.18;;
3771;SDS011;1901;48.172;12.824;2024-03-17T06:31:22;10.88;;;5.00;;
3771;SDS011;1901;48.172;12.824;2024-03-17T06:33:47;8.27;;;4.33;;
3771;SDS011;1901;48.172;12.824;2024-03-17T06:36:13;7.65;;;4.38;;
3771;SDS011;1901;48.172;12.824;2024-03-17T06:38:39;7.77;;;3.57;;
3771;SDS011;1901;48.172;12.824;2024-03-17T06:41:04;6.40;;;3.25;;
3771;SDS011;1901;48.172;12.824;2024-03-17T06:43:29;6.47;;;3.13;;
3771;SDS011;1901;48.172;12.824;2024-03-17T06:45:58;5.93;;;3.67;;
3771;SDS011;1901;48.172;12.824;2024-03-17T06:48:24;6.05;;;3.30;;
3771;SDS011;1901;48.172;12.824;2024-03-17T06:50:49;6.30;;;3.05;;
3771;SDS011;1901;48.172;12.824;2024-03-17T06:53:17;6.35;;;3.22;;
3771;SDS011;1901;48.172;12.824;2024-03-17T06:55:42;6.93;;;3.00;;
3771;SDS011;1901;48.172;12.824;2024-03-17T06:58:07;6.37;;;3.03;;
3771;SDS011;1901;48.172;12.824;2024-03-17T07:00:33;6.63;;;3.10;;
3771;SDS011;1901;48.172;12.824;2024-03-17T07:02:58;7.18;;;3.40;;
3771;SDS011;1901;48.172;12.824;2024-03-17T07:05:23;7.82;;;3.08;;
3771;SDS011;1901;48.172;12.824;2024-03-17T07:07:49;5.53;;;2.83;;
3771;SDS011;1901;48.172;12.824;2024-03-17T07:10:14;5.95;;;2.60;;
3771;SDS011;1901;48.172;12.824;2024-03-17T07:12:40;6.90;;;3.22;;
3771;SDS011;1901;48.172;12.824;2024-03-17T07:15:06;7.80;;;3.85;;
3771;SDS011;1901;48.172;12.824;2024-03-17T07:17:32;6.17;;;3.23;;
3771;SDS011;1901;48.172;12.824;2024-03-17T07:19:57;5.70;;;3.50;;
3771;SDS011;1901;48.172;12.824;2024-03-17T07:22:23;7.73;;;3.77;;
3771;SDS011;1901;48.172;12.824;2024-03-17T07:24:51;7.38;;;3.70;;
3771;SDS011;1901;48.172;12.824;2024-03-17T07:27:20;6.47;;;3.13;;
3771;SDS011;1901;48.172;12.824;2024-03-17T07:29:47;6.27;;;3.60;;
3771;SDS011;1901;48.172;12.824;2024-03-17T07:32:12;8.85;;;4.60;;
3771;SDS011;1901;48.172;12.824;2024-03-17T07:34:37;6.90;;;3.47;;
3771;SDS011;1901;48.172;12.824;2024-03-17T07:37:02;6.33;;;4.23;;
3771;SDS011;1901;48.172;12.824;2024-03-17T07:39:31;6.53;;;3.80;;
3771;SDS011;1901;48.172;12.824;2024-03-17T07:42:00;7.13;;;3.85;;
3771;SDS011;1901;48.172;12.824;2024-03-17T07:44:26;6.13;;;3.33;;
3771;SDS011;1901;48.172;12.824;2024-03-17T07:46:54;6.47;;;3.72;;
3771;SDS011;1901;48.172;12.824;2024-03-17T07:49:19;8.07;;;3.70;;
3771;SDS011;1901;48.172;12.824;2024-03-17T07:51:44;6.00;;;3.60;;
3771;SDS011;1901;48.172;12.824;2024-03-17T07:54:09;7.13;;;4.63;;
3771;SDS011;1901;48.172;12.824;2024-03-17T07:56:34;6.10;;;3.37;;
3771;SDS011;1901;48.172;12.824;2024-03-17T07:59:00;7.20;;;3.92;;
3771;SDS011;1901;48.172;12.824;2024-03-17T08:01:25;5.87;;;3.23;;
3771;SDS011;1901;48.172;12.824;2024-03-17T08:03:50;7.73;;;4.47;;
3771;SDS011;1901;48.172;12.824;2024-03-17T08:06:20;6.35;;;3.90;;
3771;SDS011;1901;48.172;12.824;2024-03-17T08:08:45;6.63;;;4.00;;
3771;SDS011;1901;48.172;12.824;2024-03-17T08:11:11;7.53;;;4.83;;
3771;SDS011;1901;48.172;12.824;2024-03-17T08:13:36;6.63;;;3.70;;
3771;SDS011;1901;48.172;12.824;2024-03-17T08:16:05;6.95;;;3.92;;
3771;SDS011;1901;48.172;12.824;2024-03-17T08:18:31;7.70;;;4.63;;
3771;SDS011;1901;48.172;12.824;2024-03-17T08:20:56;6.45;;;3.85;;
3771;SDS011;1901;48.172;12.824;2024-03-17T08:23:22;6.72;;;4.00;;
3771;SDS011;1901;48.172;12.824;2024-03-17T08:25:54;6.43;;;4.25;;
3771;SDS011;1901;48.172;12.824;2024-03-17T08:28:19;8.13;;;4.50;;
3771;SDS011;1901;48.172;12.824;2024-03-17T08:30:50;7.45;;;3.95;;
3771;SDS011;1901;48.172;12.824;2024-03-17T08:33:15;6.45;;;4.07;;
3771;SDS011;1901;48.172;12.824;2024-03-17T08:35:40;6.90;;;4.03;;
3771;SDS011;1901;48.172;12.824;2024-03-17T08:38:06;6.77;;;3.80;;
3771;SDS011;1901;48.172;12.824;2024-03-17T08:40:31;7.30;;;4.30;;
3771;SDS011;1901;48.172;12.824;2024-03-17T08:42:56;6.30;;;4.03;;
3771;SDS011;1901;48.172;12.824;2024-03-17T08:45:21;5.60;;;3.17;;
3771;SDS011;1901;48.172;12.824;2024-03-17T08:47:50;6.60;;;3.63;;
3771;SDS011;1901;48.172;12.824;2024-03-17T08:50:15;7.60;;;3.58;;
3771;SDS011;1901;48.172;12.824;2024-03-17T08:52:41;6.17;;;3.80;;
3771;SDS011;1901;48.172;12.824;2024-03-17T08:55:06;8.07;;;4.03;;
3771;SDS011;1901;48.172;12.824;2024-03-17T08:57:35;5.90;;;3.67;;
3771;SDS011;1901;48.172;12.824;2024-03-17T09:00:02;6.13;;;3.93;;
3771;SDS011;1901;48.172;12.824;2024-03-17T09:02:27;6.63;;;3.42;;
3771;SDS011;1901;48.172;12.824;2024-03-17T09:04:53;6.57;;;3.45;;
3771;SDS011;1901;48.172;12.824;2024-03-17T09:07:18;6.10;;;3.27;;
3771;SDS011;1901;48.172;12.824;2024-03-17T09:09:44;6.88;;;3.25;;
3771;SDS011;1901;48.172;12.824;2024-03-17T09:12:11;5.82;;;3.42;;
3771;SDS011;1901;48.172;12.824;2024-03-17T09:14:36;6.20;;;3.43;;
3771;SDS011;1901;48.172;12.824;2024-03-17T09:17:02;5.38;;;3.20;;
3771;SDS011;1901;48.172;12.824;2024-03-17T09:19:27;5.60;;;3.10;;
3771;SDS011;1901;48.172;12.824;2024-03-17T09:21:54;5.68;;;3.30;;
3771;SDS011;1901;48.172;12.824;2024-03-17T09:24:19;7.70;;;5.63;;
3771;SDS011;1901;48.172;12.824;2024-03-17T09:26:44;6.67;;;2.47;;
3771;SDS011;1901;48.172;12.824;2024-03-17T09:29:09;4.50;;;2.43;;
3771;SDS011;1901;48.172;12.824;2024-03-17T09:31:35;4.75;;;3.00;;
3771;SDS011;1901;48.172;12.824;2024-03-17T09:34:00;4.73;;;2.57;;
3771;SDS011;1901;48.172;12.824;2024-03-17T09:36:26;3.95;;;2.40;;
3771;SDS011;1901;48.172;12.824;2024-03-17T09:38:51;4.07;;;2.30;;
3771;SDS011;1901;48.172;12.824;2024-03-17T09:41:20;3.03;;;2.38;;
3771;SDS011;1901;48.172;12.824;2024-03-17T09:43:46;4.55;;;2.58;;
3771;SDS011;1901;48.172;12.824;2024-03-17T09:46:12;4.47;;;2.60;;
3771;SDS011;1901;48.172;12.824;2024-03-17T09:48:38;3.97;;;1.80;;
3771;SDS011;1901;48.172;12.824;2024-03-17T09:51:03;3.63;;;2.13;;
3771;SDS011;1901;48.172;12.824;2024-03-17T09:53:32;6.10;;;2.47;;
3771;SDS011;1901;48.172;12.824;2024-03-17T09:55:58;4.13;;;2.15;;
3771;SDS011;1901;48.172;12.824;2024-03-17T09:58:24;2.97;;;2.03;;
3771;SDS011;1901;48.172;12.824;2024-03-17T10:00:49;4.77;;;2.40;;
3771;SDS011;1901;48.172;12.824;2024-03-17T10:06:01;5.15;;;2.58;;
3771;SDS011;1901;48.172;12.824;2024-03-17T10:08:26;3.92;;;2.80;;
3771;SDS011;1901;48.172;12.824;2024-03-17T10:10:52;5.43;;;3.17;;
3771;SDS011;1901;48.172;12.824;2024-03-17T10:13:18;6.95;;;3.70;;
3771;SDS011;1901;48.172;12.824;2024-03-17T10:15:49;4.50;;;3.13;;
3771;SDS011;1901;48.172;12.824;2024-03-17T10:18:22;4.90;;;2.90;;
3771;SDS011;1901;48.172;12.824;2024-03-17T10:20:47;4.40;;;3.13;;
3771;SDS011;1901;48.172;12.824;2024-03-17T10:23:17;5.25;;;2.97;;
3771;SDS011;1901;48.172;12.824;2024-03-17T10:25:44;3.50;;;2.40;;
3771;SDS011;1901;48.172;12.824;2024-03-17T10:28:10;5.07;;;2.70;;
3771;SDS011;1901;48.172;12.824;2024-03-17T10:30:35;3.78;;;2.97;;
3771;SDS011;1901;48.172;12.824;2024-03-17T10:33:01;4.60;;;2.63;;
3771;SDS011;1901;48.172;12.824;2024-03-17T10:35:29;3.85;;;2.30;;
3771;SDS011;1901;48.172;12.824;2024-03-17T10:38:04;4.38;;;2.60;;
3771;SDS011;1901;48.172;12.824;2024-03-17T10:40:30;5.25;;;2.90;;
3771;SDS011;1901;48.172;12.824;2024-03-17T10:42:56;3.83;;;2.40;;
3771;SDS011;1901;48.172;12.824;2024-03-17T10:45:22;4.93;;;2.58;;
3771;SDS011;1901;48.172;12.824;2024-03-17T10:47:50;4.57;;;2.22;;
3771;SDS011;1901;48.172;12.824;2024-03-17T10:50:23;4.20;;;2.22;;
3771;SDS011;1901;48.172;12.824;2024-03-17T10:52:51;4.03;;;2.50;;
3771;SDS011;1901;48.172;12.824;2024-03-17T10:55:23;4.93;;;2.67;;
3771;SDS011;1901;48.172;12.824;2024-03-17T10:57:49;7.40;;;6.25;;
3771;SDS011;1901;48.172;12.824;2024-03-17T11:00:19;6.03;;;3.40;;
3771;SDS011;1901;48.172;12.824;2024-03-17T11:02:46;3.92;;;2.58;;
3771;SDS011;1901;48.172;12.824;2024-03-17T11:05:15;5.35;;;2.72;;
3771;SDS011;1901;48.172;12.824;2024-03-17T11:07:41;4.03;;;2.50;;
3771;SDS011;1901;48.172;12.824;2024-03-17T11:10:56;4.97;;;2.47;;
3771;SDS011;1901;48.172;12.824;2024-03-17T11:12:57;10.05;;;3.60;;
3771;SDS011;1901;48.172;12.824;2024-03-17T11:17:50;5.85;;;3.85;;
3771;SDS011;1901;48.172;12.824;2024-03-17T11:20:17;4.57;;;2.78;;
3771;SDS011;1901;48.172;12.824;2024-03-17T11:22:43;5.20;;;3.17;;
3771;SDS011;1901;48.172;12.824;2024-03-17T11:27:58;3.33;;;2.13;;
3771;SDS011;1901;48.172;12.824;2024-03-17T11:46:43;3.60;;;2.10;;
3771;SDS011;1901;48.172;12.824;2024-03-17T11:49:19;4.45;;;2.20;;
3771;SDS011;1901;48.172;12.824;2024-03-17T11:51:44;3.28;;;2.05;;
3771;SDS011;1901;48.172;12.824;2024-03-17T11:54:13;4.63;;;2.05;;
3771;SDS011;1901;48.172;12.824;2024-03-17T11:56:38;3.67;;;2.03;;
3771;SDS011;1901;48.172;12.824;2024-03-17T11:59:07;3.67;;;2.40;;
3771;SDS011;1901;48.172;12.824;2024-03-17T12:01:34;2.95;;;2.08;;
3771;SDS011;1901;48.172;12.824;2024-03-17T12:03:59;3.27;;;1.83;;
3771;SDS011;1901;48.172;12.824;2024-03-17T12:06:28;4.05;;;2.03;;
3771;SDS011;1901;48.172;12.824;2024-03-17T12:08:54;4.00;;;1.80;;
3771;SDS011;1901;48.172;12.824;2024-03-17T12:11:19;2.57;;;1.63;;
3771;SDS011;1901;48.172;12.824;2024-03-17T12:13:44;2.73;;;1.90;;
3771;SDS011;1901;48.172;12.824;2024-03-17T12:16:10;3.10;;;1.73;;
3771;SDS011;1901;48.172;12.824;2024-03-17T12:18:36;3.58;;;1.80;;
3771;SDS011;1901;48.172;12.824;2024-03-17T12:21:05;3.03;;;1.80;;
3771;SDS011;1901;48.172;12.824;2024-03-17T12:23:35;2.85;;;1.85;;
3771;SDS011;1901;48.172;12.824;2024-03-17T12:26:01;3.80;;;1.50;;
3771;SDS011;1901;48.172;12.824;2024-03-17T12:28:26;3.92;;;2.88;;
3771;SDS011;1901;48.172;12.824;2024-03-17T12:30:52;3.80;;;2.23;;
3771;SDS011;1901;48.172;12.824;2024-03-17T12:33:18;5.85;;;1.98;;
3771;SDS011;1901;48.172;12.824;2024-03-17T12:35:44;3.88;;;1.98;;
3771;SDS011;1901;48.172;12.824;2024-03-17T12:38:22;3.70;;;1.90;;
3771;SDS011;1901;48.172;12.824;2024-03-17T12:40:47;3.75;;;2.05;;
3771;SDS011;1901;48.172;12.824;2024-03-17T12:43:13;3.92;;;1.80;;
3771;SDS011;1901;48.172;12.824;2024-03-17T12:45:38;3.67;;;1.70;;
3771;SDS011;1901;48.172;12.824;2024-03-17T12:48:03;2.43;;;1.60;;
3771;SDS011;1901;48.172;12.824;2024-03-17T12:50:28;5.07;;;1.80;;
3771;SDS011;1901;48.172;12.824;2024-03-17T12:52:54;3.27;;;1.77;;
3771;SDS011;1901;48.172;12.824;2024-03-17T12:55:23;3.30;;;1.80;;
3771;SDS011;1901;48.172;12.824;2024-03-17T12:58:08;3.35;;;1.70;;
3771;SDS011;1901;48.172;12.824;2024-03-17T13:00:58;2.65;;;1.40;;
3771;SDS011;1901;48.172;12.824;2024-03-17T13:03:25;6.60;;;1.70;;
3771;SDS011;1901;48.172;12.824;2024-03-17T13:05:50;3.85;;;2.08;;
3771;SDS011;1901;48.172;12.824;2024-03-17T13:08:16;4.07;;;1.83;;
3771;SDS011;1901;48.172;12.824;2024-03-17T13:10:41;4.90;;;1.70;;
3771;SDS011;1901;48.172;12.824;2024-03-17T13:13:07;1.92;;;1.45;;
3771;SDS011;1901;48.172;12.824;2024-03-17T13:15:33;2.47;;;1.75;;
3771;SDS011;1901;48.172;12.824;2024-03-17T13:18:00;3.80;;;1.80;;
3771;SDS011;1901;48.172;12.824;2024-03-17T13:20:26;2.73;;;1.60;;
3771;SDS011;1901;48.172;12.824;2024-03-17T13:22:51;2.65;;;1.27;;
3771;SDS011;1901;48.172;12.824;2024-03-17T13:25:20;2.40;;;1.40;;
3771;SDS011;1901;48.172;12.824;2024-03-17T13:27:48;2.85;;;1.60;;
3771;SDS011;1901;48.172;12.824;2024-03-17T13:30:14;1.80;;;1.27;;
3771;SDS011;1901;48.172;12.824;2024-03-17T13:32:40;3.53;;;1.80;;
3771;SDS011;1901;48.172;12.824;2024-03-17T13:35:09;3.40;;;1.77;;
3771;SDS011;1901;48.172;12.824;2024-03-17T13:37:38;4.63;;;1.60;;
3771;SDS011;1901;48.172;12.824;2024-03-17T13:40:04;2.38;;;1.25;;
3771;SDS011;1901;48.172;12.824;2024-03-17T13:42:53;4.45;;;1.35;;
3771;SDS011;1901;48.172;12.824;2024-03-17T13:45:19;3.28;;;1.38;;
3771;SDS011;1901;48.172;12.824;2024-03-17T13:47:58;3.25;;;1.80;;
3771;SDS011;1901;48.172;12.824;2024-03-17T13:50:23;2.85;;;1.38;;
3771;SDS011;1901;48.172;12.824;2024-03-17T13:52:49;2.85;;;1.27;;
3771;SDS011;1901;48.172;12.824;2024-03-17T13:55:18;1.77;;;1.23;;
3771;SDS011;1901;48.172;12.824;2024-03-17T13:57:46;2.00;;;1.40;;
3771;SDS011;1901;48.172;12.824;2024-03-17T14:00:13;4.13;;;1.35;;
3771;SDS011;1901;48.172;12.824;2024-03-17T14:02:44;5.63;;;1.95;;
3771;SDS011;1901;48.172;12.824;2024-03-17T14:05:11;3.53;;;1.45;;
3771;SDS011;1901;48.172;12.824;2024-03-17T14:07:42;3.15;;;1.00;;
3771;SDS011;1901;48.172;12.824;2024-03-17T14:10:08;3.20;;;1.70;;
3771;SDS011;1901;48.172;12.824;2024-03-17T14:12:34;2.80;;;1.80;;
3771;SDS011;1901;48.172;12.824;2024-03-17T14:14:59;3.13;;;1.35;;
3771;SDS011;1901;48.172;12.824;2024-03-17T14:17:24;2.55;;;1.23;;
3771;SDS011;1901;48.172;12.824;2024-03-17T14:19:50;2.53;;;1.20;;
3771;SDS011;1901;48.172;12.824;2024-03-17T14:22:15;4.23;;;1.33;;
3771;SDS011;1901;48.172;12.824;2024-03-17T14:24:40;2.80;;;1.27;;
3771;SDS011;1901;48.172;12.824;2024-03-17T14:27:05;3.15;;;1.58;;
3771;SDS011;1901;48.172;12.824;2024-03-17T14:29:30;1.93;;;0.97;;
3771;SDS011;1901;48.172;12.824;2024-03-17T14:31:56;2.40;;;1.50;;
3771;SDS011;1901;48.172;12.824;2024-03-17T14:34:21;3.20;;;1.20;;
3771;SDS011;1901;48.172;12.824;2024-03-17T14:36:46;1.60;;;1.20;;
3771;SDS011;1901;48.172;12.824;2024-03-17T14:39:11;2.03;;;1.20;;
3771;SDS011;1901;48.172;12.824;2024-03-17T14:41:37;3.28;;;0.90;;
3771;SDS011;1901;48.172;12.824;2024-03-17T14:44:02;4.55;;;1.10;;
3771;SDS011;1901;48.172;12.824;2024-03-17T14:46:29;2.78;;;1.20;;
3771;SDS011;1901;48.172;12.824;2024-03-17T14:48:54;3.10;;;1.30;;
3771;SDS011;1901;48.172;12.824;2024-03-17T14:51:20;6.60;;;1.70;;
3771;SDS011;1901;48.172;12.824;2024-03-17T14:53:48;2.83;;;1.35;;
3771;SDS011;1901;48.172;12.824;2024-03-17T14:56:19;3.03;;;1.63;;
3771;SDS011;1901;48.172;12.824;2024-03-17T14:58:45;3.88;;;1.13;;
3771;SDS011;1901;48.172;12.824;2024-03-17T15:01:13;3.25;;;1.50;;
3771;SDS011;1901;48.172;12.824;2024-03-17T15:03:38;4.03;;;1.33;;
3771;SDS011;1901;48.172;12.824;2024-03-17T15:06:08;4.45;;;1.15;;
3771;SDS011;1901;48.172;12.824;2024-03-17T15:08:33;2.10;;;1.20;;
3771;SDS011;1901;48.172;12.824;2024-03-17T15:11:00;2.35;;;1.00;;
3771;SDS011;1901;48.172;12.824;2024-03-17T15:13:25;4.23;;;1.57;;
3771;SDS011;1901;48.172;12.824;2024-03-17T15:15:51;3.28;;;1.17;;
3771;SDS011;1901;48.172;12.824;2024-03-17T15:18:19;3.85;;;1.40;;